Valley International Airport
KHRL : now visible

Airfield :











YOU CAN JOIN US ON...

 
LOGIN :

Register | Disclaimer

   EN    FR    IT 

 









Legend :    VFR   Marginal VFR   IFR   Intensive IFR   Very Intensive IFR
Visi :
Ceiling :
>= 8 km
>= 3000ft
5 to 8 km
1000 to 3000 ft
1500m to 5 km
500 to 1000 ft
800 to 1500m
200 to 500 ft
< 800m
< 200 ft
Symbols :   Thunderstorms  Fog  Heavy snow  Heavy precipitations  Wind > 20 kt






- Airport Elevation : 36 ft
- IATA code : HRL


KHRL - Valley International

CURRENT METAR :
  • 071552Z 02005KT 10SM BKN065 OVC095 26/22 A3018 RMK AO2 SLP219 T02610217

EXPIRED METARs :
  • 071452Z 04009KT 10SM OVC070 24/21 A3017 RMK AO2 SLP217 T02440211 51021
  • 071400Z 04010KT 10SM FEW020 BKN070 OVC080 24/22 A3017 RMK AO2 T02390222
  • 071326Z 03009KT 10SM BKN027 BKN040 BKN050 24/22 A3015 RMK AO2 T02390217

TAF KHRL
Valid from the 07 at 12:00 until the 08 at 12:00 UTC


071138Z 0712/0812 VRB03KT P6SM VCSH FEW030 BKN230
FM071800 04006KT P6SM VCTS FEW030 BKN090CB
TEMPO 0718/0722 4SM TSRA BR OVC030CB
FM080100 03006KT P6SM FEW035 BKN110
KZHU FIR / North America



MET'MAP, your aeronautical weather chart ! - Copyright ORBIFLY December 2007 - Disclaimer

ORBIFLY MET'MAP TEAM :

Programming & Development : Alexandra Zaïnal
Original concept : Baudouin d'Aumeries
Technical & hardware support : Manuel Goepfert
Assistance : Marc-Olivier Méhu




SOURCES & CREDITS :

   NOAA       Earth
Advisory